Time;durP1;ratioP1;P1;durP2;ratioP2;P2;SDS_P1;SDS_P2;PMS_P1;PMS_P2;Temp;Humidity;BMP_temperature;BMP_pressure;BME280_temperature;BME280_humidity;BME280_pressure;Samples;Min_cycle;Max_cycle;Signal;HPM_P1;HPM_P2
2021/12/26 00:00:54;;;;;;;205.55;57.90;;;;;;;-9.67;72.38;98280.09;5088272;28;20047;-64
2021/12/26 00:03:25;;;;;;;226.68;60.05;;;;;;;-9.66;72.33;98279.09;5085218;27;20549;-64
2021/12/26 00:05:52;;;;;;;239.13;64.60;;;;;;;-9.71;72.33;98278.78;5088891;27;20028;-64
2021/12/26 00:08:18;;;;;;;226.40;62.60;;;;;;;-9.75;72.25;98275.59;5066464;28;20035;-64
2021/12/26 00:10:46;;;;;;;242.80;62.00;;;;;;;-9.81;72.19;98280.78;5079218;28;20035;-64
2021/12/26 00:13:12;;;;;;;238.13;61.55;;;;;;;-9.82;71.96;98284.44;5079530;28;20035;-64
2021/12/26 00:15:37;;;;;;;221.90;61.50;;;;;;;-9.83;72.16;98285.44;5081918;27;20032;-63
2021/12/26 00:18:03;;;;;;;213.38;58.55;;;;;;;-9.79;72.62;98286.75;5075741;28;20035;-63
2021/12/26 00:20:28;;;;;;;204.52;58.13;;;;;;;-9.82;72.31;98285.28;5087391;27;20063;-63
2021/12/26 00:22:54;;;;;;;217.13;58.67;;;;;;;-9.85;72.25;98282.09;5087505;28;20031;-64
2021/12/26 00:25:19;;;;;;;213.70;60.88;;;;;;;-9.93;72.14;98289.09;5086756;28;21120;-63
2021/12/26 00:27:45;;;;;;;250.35;67.35;;;;;;;-10.03;72.05;98283.16;5087085;28;20055;-64
2021/12/26 00:30:15;;;;;;;272.25;67.20;;;;;;;-10.12;71.72;98292.94;5084055;28;20656;-64
2021/12/26 00:32:42;;;;;;;262.48;69.97;;;;;;;-10.21;71.58;98288.66;5078639;27;20051;-64
2021/12/26 00:35:09;;;;;;;250.95;69.90;;;;;;;-10.29;71.67;98286.00;5077229;28;20488;-65
2021/12/26 00:37:34;;;;;;;264.33;71.40;;;;;;;-10.38;71.77;98288.66;5086067;28;20373;-64
2021/12/26 00:40:00;;;;;;;264.80;72.75;;;;;;;-10.41;71.85;98293.50;5087395;28;20023;-64
2021/12/26 00:42:25;;;;;;;253.20;72.30;;;;;;;-10.43;71.60;98275.09;5088394;27;20074;-65
2021/12/26 00:44:50;;;;;;;244.68;66.63;;;;;;;-10.43;71.73;98284.88;5085676;28;20924;-65
2021/12/26 00:47:16;;;;;;;246.75;65.88;;;;;;;-10.45;71.87;98290.31;5087225;27;20879;-64
2021/12/26 00:49:41;;;;;;;243.43;66.57;;;;;;;-10.50;71.89;98296.13;5067864;28;20028;-65
2021/12/26 00:52:07;;;;;;;229.50;63.97;;;;;;;-10.53;71.86;98293.81;5081599;28;20470;-63
2021/12/26 00:54:33;;;;;;;247.30;67.03;;;;;;;-10.53;72.05;98291.16;5077104;28;20472;-64
2021/12/26 00:56:59;;;;;;;251.00;64.90;;;;;;;-10.47;72.31;98300.28;5080206;28;20139;-64
2021/12/26 00:59:25;;;;;;;237.60;63.20;;;;;;;-10.49;72.10;98296.94;5067727;27;20593;-64
2021/12/26 01:01:53;;;;;;;231.93;68.72;;;;;;;-10.50;72.14;98300.59;5085320;28;20581;-64
2021/12/26 01:04:19;;;;;;;220.77;64.43;;;;;;;-10.48;72.27;98291.50;5085424;28;20051;-64
2021/12/26 01:06:45;;;;;;;241.60;69.18;;;;;;;-10.44;72.04;98285.88;5087261;27;20031;-64
2021/12/26 01:09:15;;;;;;;229.45;65.28;;;;;;;-10.46;72.06;98283.38;5085400;28;20037;-65
2021/12/26 01:11:47;;;;;;;230.88;65.25;;;;;;;-10.46;72.17;98278.06;5085335;28;20023;-65
2021/12/26 01:14:16;;;;;;;244.88;68.35;;;;;;;-10.47;72.16;98287.84;5078997;28;20035;-64
2021/12/26 01:16:44;;;;;;;249.25;68.78;;;;;;;-10.46;71.65;98283.38;5067370;28;20032;-64
2021/12/26 01:19:14;;;;;;;234.57;68.57;;;;;;;-10.46;72.11;98291.31;5081493;28;20368;-64
2021/12/26 01:21:41;;;;;;;232.50;66.13;;;;;;;-10.48;71.88;98283.56;5087103;28;20042;-64
2021/12/26 01:24:09;;;;;;;227.82;67.93;;;;;;;-10.47;71.84;98276.41;5075807;28;20016;-64
2021/12/26 01:26:35;;;;;;;229.05;69.57;;;;;;;-10.47;71.90;98279.06;5086373;28;20024;-65
2021/12/26 01:29:01;;;;;;;224.70;66.95;;;;;;;-10.50;72.18;98272.28;5086360;28;20040;-65
2021/12/26 01:31:27;;;;;;;236.23;67.55;;;;;;;-10.50;71.58;98276.75;5086987;28;20863;-64
2021/12/26 01:33:59;;;;;;;240.55;66.90;;;;;;;-10.53;71.88;98272.59;5081940;28;20042;-64
2021/12/26 01:36:25;;;;;;;231.10;66.82;;;;;;;-10.53;71.57;98272.59;5066847;28;20869;-64
2021/12/26 01:38:51;;;;;;;249.55;71.35;;;;;;;-10.55;71.97;98265.81;5077980;28;20023;-64
2021/12/26 01:41:17;;;;;;;238.52;66.00;;;;;;;-10.59;72.13;98262.66;5085922;28;20392;-64
2021/12/26 01:43:46;;;;;;;241.35;64.93;;;;;;;-10.63;71.58;98274.59;5084662;28;20581;-64
2021/12/26 01:46:13;;;;;;;235.90;63.40;;;;;;;-10.69;71.69;98272.59;5086531;28;20035;-65
2021/12/26 01:48:39;;;;;;;244.07;66.90;;;;;;;-10.78;71.62;98267.28;5085738;28;20024;-65
2021/12/26 01:51:05;;;;;;;279.58;75.78;;;;;;;-10.81;71.47;98261.47;5085879;28;20039;-65
2021/12/26 01:53:39;;;;;;;252.80;70.13;;;;;;;-10.86;71.53;98256.69;5084278;28;20039;-65
2021/12/26 01:56:11;;;;;;;253.57;66.03;;;;;;;-10.87;71.71;98256.84;5078206;28;20031;-65
2021/12/26 01:58:38;;;;;;;248.02;67.70;;;;;;;-10.90;71.70;98273.91;5075392;28;20034;-65
2021/12/26 02:01:12;;;;;;;248.00;68.13;;;;;;;-10.91;71.81;98261.66;5082034;28;20028;-65
2021/12/26 02:03:40;;;;;;;236.75;67.57;;;;;;;-10.92;71.62;98258.16;5085135;28;20048;-65
2021/12/26 02:06:06;;;;;;;245.27;65.65;;;;;;;-10.92;71.63;98254.69;5085881;28;20028;-65
2021/12/26 02:08:32;;;;;;;229.00;62.42;;;;;;;-10.93;71.53;98253.03;5086304;28;20126;-65
2021/12/26 02:11:02;;;;;;;232.20;62.10;;;;;;;-10.92;71.77;98244.09;5085448;28;20039;-65
2021/12/26 02:13:31;;;;;;;233.68;63.55;;;;;;;-10.92;71.85;98249.41;5085501;28;20039;-65
2021/12/26 02:15:56;;;;;;;235.43;61.65;;;;;;;-10.90;71.88;98254.50;5083113;28;20971;-65
2021/12/26 02:18:22;;;;;;;209.57;61.60;;;;;;;-10.89;71.85;98249.06;5076004;28;20115;-66
2021/12/26 02:23:27;;;;;;;233.27;64.27;;;;;;;-10.87;71.93;98248.88;5083607;28;20039;-65
2021/12/26 02:28:38;;;;;;;230.38;61.78;;;;;;;-10.94;71.63;98257.47;5083914;28;20032;-65
2021/12/26 02:31:04;;;;;;;220.23;61.10;;;;;;;-10.96;71.48;98253.34;5084631;28;20028;-65
2021/12/26 02:33:30;;;;;;;223.57;60.95;;;;;;;-10.98;71.36;98248.19;5086881;27;20404;-65
2021/12/26 02:35:55;;;;;;;216.60;59.60;;;;;;;-11.00;71.49;98258.13;5087977;28;20024;-65
2021/12/26 02:38:21;;;;;;;236.35;61.42;;;;;;;-11.01;71.49;98258.31;5081728;28;20930;-65
2021/12/26 02:40:49;;;;;;;226.80;60.92;;;;;;;-11.05;71.47;98260.47;5079280;28;20027;-65
2021/12/26 02:43:21;;;;;;;217.40;61.10;;;;;;;-11.05;71.73;98249.88;5064874;28;20105;-65
2021/12/26 02:45:47;;;;;;;231.15;60.80;;;;;;;-11.05;71.61;98259.63;5101043;27;20028;-63
2021/12/26 02:48:12;;;;;;;217.27;59.58;;;;;;;-11.04;71.61;98258.63;5106489;27;20077;-63
2021/12/26 02:50:39;;;;;;;205.25;58.53;;;;;;;-11.02;71.92;98252.19;5106418;28;20031;-63
2021/12/26 02:53:06;;;;;;;239.52;58.95;;;;;;;-11.01;71.57;98258.31;5106580;28;20046;-63
2021/12/26 02:55:32;;;;;;;202.93;56.13;;;;;;;-10.99;72.12;98265.09;5106020;28;20196;-63
2021/12/26 02:58:04;;;;;;;198.98;55.90;;;;;;;-10.99;71.99;98264.28;5106777;28;20115;-63
2021/12/26 03:00:36;;;;;;;209.30;53.53;;;;;;;-10.96;71.87;98263.94;5106481;28;20051;-63
2021/12/26 03:03:04;;;;;;;197.85;53.78;;;;;;;-10.95;72.16;98265.59;5105920;28;20056;-63
2021/12/26 03:05:32;;;;;;;197.68;54.75;;;;;;;-10.90;71.82;98271.25;5087113;28;20043;-64
2021/12/26 03:07:58;;;;;;;188.73;51.35;;;;;;;-10.87;72.05;98267.44;5105791;28;20058;-63
2021/12/26 03:10:26;;;;;;;173.35;51.15;;;;;;;-10.85;72.06;98265.44;5105316;27;20463;-65
2021/12/26 03:12:55;;;;;;;193.68;52.78;;;;;;;-10.82;72.21;98260.66;5105788;28;20023;-65
2021/12/26 03:15:22;;;;;;;177.85;49.28;;;;;;;-10.78;72.25;98272.56;5086333;27;20027;-64
2021/12/26 03:17:48;;;;;;;176.73;50.30;;;;;;;-10.77;72.18;98271.59;5087635;28;20024;-64
2021/12/26 03:20:17;;;;;;;180.95;51.03;;;;;;;-10.78;72.00;98266.47;5106259;28;20140;-64
2021/12/26 03:22:44;;;;;;;176.10;48.20;;;;;;;-10.79;72.09;98278.88;5106149;28;20042;-64
2021/12/26 03:25:22;;;;;;;167.40;49.55;;;;;;;-10.84;71.82;98278.56;5105590;27;20073;-64
2021/12/26 03:27:49;;;;;;;164.88;48.50;;;;;;;-10.86;71.90;98283.19;5105040;28;20060;-65
2021/12/26 03:30:19;;;;;;;169.55;47.78;;;;;;;-10.86;71.79;98285.00;5105331;28;20031;-65
2021/12/26 03:32:45;;;;;;;175.85;48.88;;;;;;;-10.87;72.06;98293.94;5105682;28;20028;-65
2021/12/26 03:35:11;;;;;;;162.60;47.75;;;;;;;-10.88;71.84;98286.97;5105164;28;20019;-65
2021/12/26 03:37:38;;;;;;;167.38;48.55;;;;;;;-10.89;71.88;98286.16;5105715;28;20035;-65
2021/12/26 03:40:05;;;;;;;154.35;46.03;;;;;;;-10.89;72.02;98290.59;5106075;27;20040;-66
2021/12/26 03:42:31;;;;;;;150.63;46.80;;;;;;;-10.91;72.20;98293.44;5105641;28;20023;-65
2021/12/26 03:44:58;;;;;;;156.27;46.10;;;;;;;-10.88;72.13;98292.28;5104542;28;20040;-64
2021/12/26 03:47:23;;;;;;;150.55;45.78;;;;;;;-10.87;72.61;98288.63;5105376;28;20028;-65
2021/12/26 03:49:50;;;;;;;155.90;45.85;;;;;;;-10.85;72.25;98286.66;5105469;28;20023;-65
2021/12/26 03:52:15;;;;;;;152.77;45.80;;;;;;;-10.82;72.05;98288.97;5104388;28;20080;-64
2021/12/26 03:54:41;;;;;;;161.52;45.78;;;;;;;-10.82;72.05;98278.38;5085243;28;20027;-64
2021/12/26 03:57:06;;;;;;;150.95;45.05;;;;;;;-10.78;71.99;98290.31;5105431;27;21265;-64
2021/12/26 03:59:32;;;;;;;151.40;45.17;;;;;;;-10.77;72.04;98284.84;5105802;28;20051;-65
2021/12/26 04:01:58;;;;;;;133.25;42.35;;;;;;;-10.80;72.09;98285.16;5105070;28;20716;-64
2021/12/26 04:04:24;;;;;;;143.70;43.53;;;;;;;-10.81;72.41;98295.94;5085171;28;20058;-64
2021/12/26 04:06:49;;;;;;;154.07;45.83;;;;;;;-10.81;72.23;98296.78;5104040;27;20051;-64
2021/12/26 04:09:15;;;;;;;154.68;45.03;;;;;;;-10.80;72.16;98297.59;5104708;28;20154;-64
2021/12/26 04:11:44;;;;;;;169.07;46.05;;;;;;;-10.80;72.08;98301.06;5105432;28;20034;-64
2021/12/26 04:14:10;;;;;;;152.30;45.17;;;;;;;-10.78;71.98;98304.38;5103673;28;20399;-64
2021/12/26 04:16:35;;;;;;;164.45;46.58;;;;;;;-10.78;72.03;98307.03;5104968;28;20073;-64
2021/12/26 04:19:02;;;;;;;158.05;45.75;;;;;;;-10.77;71.77;98300.72;5105612;27;20672;-65
2021/12/26 04:21:27;;;;;;;145.80;43.45;;;;;;;-10.74;72.34;98312.84;5104873;28;20788;-64
2021/12/26 04:23:52;;;;;;;153.77;44.78;;;;;;;-10.77;72.15;98303.38;5103458;28;20088;-64
2021/12/26 04:26:18;;;;;;;148.13;43.75;;;;;;;-10.74;72.52;98302.25;5105215;28;20027;-64
2021/12/26 04:28:44;;;;;;;138.55;42.47;;;;;;;-10.72;72.26;98312.66;5086146;28;20054;-64
2021/12/26 04:31:09;;;;;;;143.60;40.67;;;;;;;-10.74;72.23;98299.59;5105055;27;20098;-64
2021/12/26 04:33:34;;;;;;;121.97;40.55;;;;;;;-10.72;71.99;98315.31;5104661;28;20055;-65
2021/12/26 04:36:00;;;;;;;129.55;38.53;;;;;;;-10.72;72.30;98305.56;5105235;28;20035;-65
2021/12/26 04:38:25;;;;;;;137.77;39.30;;;;;;;-10.72;72.39;98307.38;5106120;27;20039;-65
2021/12/26 04:40:51;;;;;;;132.00;40.97;;;;;;;-10.73;72.25;98306.56;5105780;28;20066;-65
2021/12/26 04:43:20;;;;;;;141.07;42.20;;;;;;;-10.71;72.12;98306.38;5105085;28;20027;-64
2021/12/26 04:45:47;;;;;;;143.37;40.80;;;;;;;-10.68;72.41;98306.03;5105346;28;20024;-65
2021/12/26 04:48:12;;;;;;;133.68;39.92;;;;;;;-10.66;72.20;98304.06;5105482;27;20383;-65
2021/12/26 04:50:38;;;;;;;140.85;39.38;;;;;;;-10.67;72.27;98305.06;5104329;28;20035;-64
2021/12/26 04:53:03;;;;;;;122.57;38.33;;;;;;;-10.69;72.31;98310.53;5105551;28;20050;-64
2021/12/26 04:55:29;;;;;;;114.55;38.20;;;;;;;-10.69;72.21;98309.69;5104368;27;20527;-65
2021/12/26 04:57:55;;;;;;;125.13;38.05;;;;;;;-10.72;72.46;98305.56;5104263;28;20488;-65
2021/12/26 05:00:23;;;;;;;121.25;37.20;;;;;;;-10.74;72.19;98310.19;5104776;28;20028;-64
2021/12/26 05:02:49;;;;;;;121.35;35.63;;;;;;;-10.74;72.31;98304.88;5105079;28;20031;-65
2021/12/26 05:05:15;;;;;;;116.72;36.45;;;;;;;-10.77;72.04;98303.38;5104447;28;20430;-64
2021/12/26 05:07:42;;;;;;;101.57;33.83;;;;;;;-10.79;72.09;98304.53;5105266;28;20039;-64
2021/12/26 05:10:10;;;;;;;117.30;35.45;;;;;;;-10.84;71.96;98307.69;5103247;28;20023;-65
2021/12/26 05:12:36;;;;;;;111.15;36.28;;;;;;;-10.86;71.86;98314.13;5105296;28;20024;-64
2021/12/26 05:15:06;;;;;;;109.93;34.03;;;;;;;-10.89;71.90;98311.81;5086599;28;20400;-65
2021/12/26 05:17:32;;;;;;;107.47;34.88;;;;;;;-10.93;71.97;98314.78;5105335;28;20032;-64
2021/12/26 05:19:57;;;;;;;118.07;35.30;;;;;;;-10.96;71.73;98314.28;5104639;28;20059;-65
2021/12/26 05:22:23;;;;;;;105.63;34.75;;;;;;;-10.99;71.73;98314.59;5105285;28;20510;-65
2021/12/26 05:24:48;;;;;;;107.47;36.00;;;;;;;-11.03;71.73;98310.63;5084752;28;20114;-65
2021/12/26 05:27:14;;;;;;;128.13;39.28;;;;;;;-11.11;71.60;98317.53;5084936;28;20019;-65
2021/12/26 05:29:40;;;;;;;129.40;41.10;;;;;;;-11.21;71.33;98319.50;5106729;27;20020;-65
2021/12/26 05:32:06;;;;;;;141.90;43.38;;;;;;;-11.28;71.29;98318.50;5105072;28;20040;-65
2021/12/26 05:34:31;;;;;;;138.05;41.42;;;;;;;-11.35;71.46;98320.94;5104390;28;20035;-64
2021/12/26 05:36:57;;;;;;;131.57;39.50;;;;;;;-11.38;71.77;98319.44;5104307;28;20093;-65
2021/12/26 05:39:22;;;;;;;134.77;39.97;;;;;;;-11.42;71.21;98319.94;5104150;28;20030;-65
2021/12/26 05:41:47;;;;;;;134.13;40.47;;;;;;;-11.43;71.61;98321.72;5104200;28;20468;-65
2021/12/26 05:44:13;;;;;;;131.57;40.33;;;;;;;-11.47;71.14;98316.91;5104703;27;20043;-65
2021/12/26 05:46:39;;;;;;;140.18;40.25;;;;;;;-11.48;71.54;98313.44;5104331;27;20072;-65
2021/12/26 05:49:04;;;;;;;139.57;41.22;;;;;;;-11.55;71.42;98323.00;5104226;28;20140;-64
2021/12/26 05:51:30;;;;;;;138.43;42.67;;;;;;;-11.61;71.42;98321.81;5084908;28;20039;-64
2021/12/26 05:53:57;;;;;;;146.38;42.08;;;;;;;-11.64;71.22;98318.66;5103616;28;20123;-64
2021/12/26 05:56:22;;;;;;;133.38;39.58;;;;;;;-11.69;71.13;98322.59;5085837;28;20132;-64
2021/12/26 05:58:48;;;;;;;145.75;41.28;;;;;;;-11.70;71.34;98323.59;5104298;28;20032;-64
2021/12/26 06:01:13;;;;;;;153.20;41.50;;;;;;;-11.72;71.47;98327.38;5104373;28;20028;-64
2021/12/26 06:03:40;;;;;;;136.10;39.38;;;;;;;-11.72;71.21;98332.66;5104096;28;20039;-64
2021/12/26 06:06:06;;;;;;;147.13;39.17;;;;;;;-11.74;71.40;98335.47;5102865;28;20045;-64
2021/12/26 06:08:31;;;;;;;137.52;40.97;;;;;;;-11.78;71.39;98339.41;5085466;28;20373;-65
2021/12/26 06:10:57;;;;;;;136.88;38.17;;;;;;;-11.78;71.54;98343.84;5104466;28;20093;-64
2021/12/26 06:13:22;;;;;;;145.43;44.22;;;;;;;-11.83;71.33;98341.69;5101983;28;20376;-64
2021/12/26 06:15:48;;;;;;;133.55;43.05;;;;;;;-11.83;71.39;98342.53;5104151;28;20028;-64
2021/12/26 06:18:13;;;;;;;150.90;46.63;;;;;;;-11.87;71.33;98340.34;5102189;28;20031;-64
2021/12/26 06:20:39;;;;;;;138.02;42.72;;;;;;;-11.88;71.41;98341.31;5104711;28;20433;-64
2021/12/26 06:23:04;;;;;;;121.45;40.28;;;;;;;-11.88;71.40;98342.16;5084824;28;20036;-65
2021/12/26 06:25:29;;;;;;;133.05;42.60;;;;;;;-11.89;71.47;98339.66;5103913;28;20031;-64
2021/12/26 06:27:55;;;;;;;153.52;45.25;;;;;;;-11.91;71.21;98344.28;5103904;28;20843;-64
2021/12/26 06:30:21;;;;;;;152.32;44.50;;;;;;;-11.94;71.43;98347.22;5104371;28;20043;-64
2021/12/26 06:32:46;;;;;;;157.75;47.20;;;;;;;-11.94;71.12;98344.59;5103940;28;20054;-64
2021/12/26 06:35:12;;;;;;;168.68;50.45;;;;;;;-11.98;71.19;98344.88;5084568;28;20444;-65
2021/12/26 06:37:38;;;;;;;151.70;46.90;;;;;;;-12.00;71.19;98336.31;5103832;28;20367;-64
2021/12/26 06:40:06;;;;;;;127.60;42.90;;;;;;;-11.99;71.41;98337.94;5103913;28;20036;-64
2021/12/26 06:42:33;;;;;;;141.95;42.75;;;;;;;-11.97;71.28;98346.56;5104588;28;20055;-65
2021/12/26 06:44:58;;;;;;;132.50;39.65;;;;;;;-11.97;71.25;98351.84;5101068;28;20036;-65
2021/12/26 06:47:25;;;;;;;129.00;37.00;;;;;;;-11.96;71.23;98353.50;5104075;28;20118;-65
2021/12/26 06:49:50;;;;;;;129.98;37.80;;;;;;;-11.97;71.31;98351.03;5103897;28;20038;-65
2021/12/26 06:52:16;;;;;;;129.32;38.47;;;;;;;-11.94;71.66;98344.59;5084877;28;20019;-64
2021/12/26 06:54:41;;;;;;;134.60;38.08;;;;;;;-11.96;71.29;98342.91;5102120;28;20387;-64
2021/12/26 06:57:07;;;;;;;140.02;39.17;;;;;;;-11.93;71.39;98348.88;5104086;28;20016;-64
2021/12/26 06:59:33;;;;;;;142.82;42.20;;;;;;;-11.93;71.25;98356.81;5104532;28;20036;-64
2021/12/26 07:01:58;;;;;;;159.25;45.78;;;;;;;-11.96;71.46;98352.69;5102929;28;20181;-64
2021/12/26 07:04:23;;;;;;;145.00;44.85;;;;;;;-11.96;71.35;98356.16;5102388;28;20560;-65
2021/12/26 07:06:49;;;;;;;152.70;43.45;;;;;;;-11.93;71.44;98357.66;5103265;28;20051;-65
2021/12/26 07:09:14;;;;;;;130.15;38.58;;;;;;;-11.90;71.40;98356.53;5103835;28;20024;-65
2021/12/26 07:11:41;;;;;;;143.60;40.85;;;;;;;-11.88;71.23;98367.78;5102160;28;20492;-65
2021/12/26 07:14:06;;;;;;;160.65;44.60;;;;;;;-11.86;71.36;98360.50;5102663;28;20076;-65
2021/12/26 07:16:32;;;;;;;164.50;48.67;;;;;;;-11.84;71.44;98361.19;5084445;28;20027;-64
2021/12/26 07:18:57;;;;;;;187.80;51.72;;;;;;;-11.82;71.15;98365.31;5105391;28;20042;-65
2021/12/26 07:21:22;;;;;;;168.73;48.80;;;;;;;-11.81;71.53;98366.19;5088586;28;20038;-65
2021/12/26 07:23:48;;;;;;;191.00;54.80;;;;;;;-11.81;71.13;98371.47;5105841;27;20027;-64
2021/12/26 07:26:13;;;;;;;165.68;49.33;;;;;;;-11.85;71.28;98370.13;5086571;28;20028;-64
2021/12/26 07:28:39;;;;;;;156.05;45.63;;;;;;;-11.87;71.05;98374.72;5106844;28;20126;-65
2021/12/26 07:31:05;;;;;;;171.45;47.13;;;;;;;-11.86;71.23;98371.09;5107822;28;20027;-64
2021/12/26 07:33:30;;;;;;;153.18;45.78;;;;;;;-11.83;71.34;98376.06;5106321;28;20028;-64
2021/12/26 07:35:55;;;;;;;155.20;44.53;;;;;;;-11.80;71.28;98370.47;5106602;28;20053;-64
2021/12/26 07:38:21;;;;;;;166.55;47.65;;;;;;;-11.74;71.37;98379.59;5088196;27;20034;-64
2021/12/26 07:40:47;;;;;;;174.45;47.53;;;;;;;-11.71;71.57;98380.13;5105949;28;20028;-65
2021/12/26 07:43:13;;;;;;;174.38;46.92;;;;;;;-11.70;71.28;98380.94;5104736;27;20118;-64
2021/12/26 07:45:39;;;;;;;188.43;52.10;;;;;;;-11.73;71.21;98384.75;5107357;28;20107;-65
2021/12/26 07:48:05;;;;;;;181.32;54.25;;;;;;;-11.74;71.31;98382.25;5106982;28;20150;-65
2021/12/26 07:50:31;;;;;;;192.18;54.30;;;;;;;-11.70;71.28;98396.84;5088099;28;20036;-66
2021/12/26 07:53:03;;;;;;;190.32;54.13;;;;;;;-11.65;71.39;98393.75;5107655;27;20040;-66
2021/12/26 07:55:28;;;;;;;188.05;55.40;;;;;;;-11.61;71.50;98409.13;5105373;28;20835;-65
2021/12/26 07:57:54;;;;;;;202.50;54.75;;;;;;;-11.55;71.54;98405.03;5105963;28;20040;-66
2021/12/26 08:00:20;;;;;;;177.32;53.47;;;;;;;-11.44;71.92;98404.78;5070448;28;20100;-67
2021/12/26 08:02:46;;;;;;;176.40;52.63;;;;;;;-11.33;72.04;98401.03;5105727;28;20112;-66
2021/12/26 08:05:11;;;;;;;190.75;53.90;;;;;;;-11.25;71.90;98397.59;5105971;28;20040;-66
2021/12/26 08:07:36;;;;;;;191.60;55.65;;;;;;;-11.19;71.71;98393.50;5107279;28;20494;-66
2021/12/26 08:10:03;;;;;;;214.90;57.92;;;;;;;-11.15;71.61;98400.94;5107308;27;20035;-65
2021/12/26 08:12:29;;;;;;;211.52;59.13;;;;;;;-11.09;71.56;98397.66;5106022;28;20028;-65
2021/12/26 08:14:55;;;;;;;191.02;55.28;;;;;;;-11.07;71.74;98390.41;5104962;28;20480;-65
2021/12/26 08:17:20;;;;;;;200.60;57.22;;;;;;;-11.03;71.83;98390.94;5105940;27;20032;-66
2021/12/26 08:19:46;;;;;;;221.00;58.25;;;;;;;-11.01;71.60;98406.66;5106322;27;20463;-66
2021/12/26 08:22:11;;;;;;;223.43;59.40;;;;;;;-11.00;71.55;98389.75;5106764;27;20076;-65
2021/12/26 08:24:37;;;;;;;272.60;66.63;;;;;;;-10.90;71.88;98393.13;5104887;28;20028;-66
2021/12/26 08:27:02;;;;;;;276.27;71.35;;;;;;;-10.85;71.87;98393.47;5105608;28;20035;-66
2021/12/26 08:29:28;;;;;;;274.38;70.22;;;;;;;-10.80;71.79;98395.63;5105231;28;20039;-66
2021/12/26 08:31:56;;;;;;;231.32;64.63;;;;;;;-10.79;72.08;98395.44;5105606;28;20024;-66
2021/12/26 08:34:23;;;;;;;204.43;56.53;;;;;;;-10.75;71.97;98398.63;5084320;28;20035;-66
2021/12/26 08:36:54;;;;;;;188.55;54.22;;;;;;;-10.72;71.84;98397.47;5104975;27;20066;-66
2021/12/26 08:39:20;;;;;;;170.63;48.88;;;;;;;-10.67;72.13;98393.34;5104806;28;20486;-66
2021/12/26 08:41:45;;;;;;;164.15;48.22;;;;;;;-10.64;72.14;98393.03;5086527;28;20015;-65
2021/12/26 08:44:16;;;;;;;174.48;50.15;;;;;;;-10.60;71.85;98390.06;5104941;28;20529;-65
2021/12/26 08:46:42;;;;;;;187.82;55.08;;;;;;;-10.52;72.00;98392.72;5106081;28;20024;-66
2021/12/26 08:49:08;;;;;;;188.02;52.38;;;;;;;-10.49;72.20;98393.22;5103514;28;20106;-66
2021/12/26 08:51:33;;;;;;;199.52;58.97;;;;;;;-10.43;72.00;98389.09;5105573;28;20092;-65
2021/12/26 08:54:02;;;;;;;179.95;57.10;;;;;;;-10.39;72.32;98394.91;5104952;28;20032;-65
2021/12/26 08:56:28;;;;;;;178.10;55.53;;;;;;;-10.32;72.32;98386.09;5086589;28;20023;-66
2021/12/26 08:58:53;;;;;;;172.85;52.45;;;;;;;-10.25;72.51;98398.72;5105140;28;20035;-66
2021/12/26 09:01:19;;;;;;;183.90;54.33;;;;;;;-10.15;72.57;98401.19;5103230;28;20024;-66
2021/12/26 09:03:44;;;;;;;192.40;61.35;;;;;;;-10.11;72.42;98387.44;5104948;27;20067;-66
2021/12/26 09:06:09;;;;;;;198.98;59.13;;;;;;;-10.03;72.56;98392.75;5104113;28;20391;-66
2021/12/26 09:08:35;;;;;;;174.38;52.22;;;;;;;-9.89;72.92;98391.25;5102966;28;20042;-66
2021/12/26 09:11:00;;;;;;;163.00;51.55;;;;;;;-9.75;73.03;98380.97;5105165;28;20441;-68
2021/12/26 09:13:26;;;;;;;151.20;48.00;;;;;;;-9.65;72.93;98386.09;5103202;28;20043;-66
2021/12/26 09:15:51;;;;;;;168.50;51.67;;;;;;;-9.54;73.00;98388.41;5104691;28;20035;-66
2021/12/26 09:18:17;;;;;;;138.82;46.95;;;;;;;-9.40;73.22;98394.03;5104457;28;20048;-66
2021/12/26 09:20:42;;;;;;;141.63;45.60;;;;;;;-9.33;72.92;98379.88;5104845;27;20027;-66
2021/12/26 09:23:07;;;;;;;143.50;48.08;;;;;;;-9.18;73.12;98381.84;5102632;27;20547;-66
2021/12/26 09:25:33;;;;;;;140.88;51.55;;;;;;;-9.06;73.38;98377.81;5104417;28;20039;-66
2021/12/26 09:27:58;;;;;;;143.95;46.72;;;;;;;-8.90;73.20;98376.09;5104170;27;20038;-67
2021/12/26 09:30:24;;;;;;;132.45;44.35;;;;;;;-8.85;72.97;98381.72;5104746;28;20773;-66
2021/12/26 09:32:50;;;;;;;148.80;47.25;;;;;;;-8.80;72.91;98378.53;5104237;28;20042;-66
2021/12/26 09:35:15;;;;;;;129.45;42.33;;;;;;;-8.73;73.15;98377.66;5103217;28;20429;-66
2021/12/26 09:37:43;;;;;;;129.32;43.53;;;;;;;-8.65;72.99;98374.16;5101918;28;20052;-66
2021/12/26 09:40:10;;;;;;;132.82;42.80;;;;;;;-8.57;73.36;98375.91;5103794;28;20047;-66
2021/12/26 09:42:37;;;;;;;128.55;42.05;;;;;;;-8.51;73.34;98369.91;5085104;28;20471;-66
2021/12/26 09:45:04;;;;;;;118.97;39.45;;;;;;;-8.42;73.10;98366.16;5103569;28;20178;-66
2021/12/26 09:47:30;;;;;;;92.75;31.83;;;;;;;-8.31;73.44;98374.72;5104269;27;20039;-65
2021/12/26 09:49:56;;;;;;;114.63;38.30;;;;;;;-8.22;73.17;98376.31;5106184;27;20096;-65
2021/12/26 09:52:22;;;;;;;124.25;42.10;;;;;;;-8.17;73.55;98371.31;5104953;27;20106;-65
2021/12/26 09:54:47;;;;;;;135.70;45.40;;;;;;;-8.08;73.21;98364.06;5103456;28;20096;-65
2021/12/26 09:57:13;;;;;;;127.85;43.20;;;;;;;-7.95;73.64;98369.63;5104215;27;20051;-65
2021/12/26 09:59:41;;;;;;;132.25;45.75;;;;;;;-7.88;73.30;98369.75;5106152;27;20032;-66
2021/12/26 10:02:09;;;;;;;114.63;40.22;;;;;;;-7.80;73.23;98367.00;5104884;28;20759;-64
2021/12/26 10:04:36;;;;;;;148.70;48.75;;;;;;;-7.72;73.49;98362.63;5103259;27;20100;-64
2021/12/26 10:07:04;;;;;;;118.47;39.78;;;;;;;-7.62;73.26;98361.34;5084832;28;20039;-65
2021/12/26 10:09:32;;;;;;;119.10;39.35;;;;;;;-7.57;73.60;98360.81;5083863;28;20039;-65
2021/12/26 10:11:59;;;;;;;116.47;39.20;;;;;;;-7.53;73.45;98353.28;5103601;28;20058;-63
2021/12/26 10:14:29;;;;;;;113.93;36.35;;;;;;;-7.51;72.79;98351.25;5085744;28;20038;-63
2021/12/26 10:17:06;;;;;;;90.55;32.72;;;;;;;-7.45;73.50;98355.88;5102572;28;20033;-64
2021/12/26 10:19:36;;;;;;;81.65;31.63;;;;;;;-7.35;73.41;98350.25;5104428;28;20028;-63
2021/12/26 10:22:04;;;;;;;91.90;32.28;;;;;;;-7.30;72.97;98350.53;5105722;28;20023;-63
2021/12/26 10:24:38;;;;;;;79.35;29.08;;;;;;;-7.20;73.39;98352.91;5101516;28;20036;-63
2021/12/26 10:27:08;;;;;;;84.55;28.95;;;;;;;-7.15;73.35;98355.06;5103055;28;20030;-63
2021/12/26 10:29:45;;;;;;;88.07;30.15;;;;;;;-7.12;73.02;98352.84;5106469;28;20044;-62
2021/12/26 10:32:18;;;;;;;89.30;30.10;;;;;;;-7.06;72.58;98352.09;5105873;28;20107;-64
2021/12/26 10:34:46;;;;;;;86.90;30.65;;;;;;;-6.99;73.33;98346.03;5104225;28;20035;-64
2021/12/26 10:37:13;;;;;;;95.88;31.30;;;;;;;-6.95;72.98;98353.47;5101775;28;20067;-64
2021/12/26 10:39:42;;;;;;;98.13;33.38;;;;;;;-6.90;72.80;98351.06;5104609;28;20379;-64
2021/12/26 10:42:13;;;;;;;294.88;79.60;;;;;;;-6.81;72.93;98353.63;5103968;28;20057;-64
2021/12/26 10:44:49;;;;;;;544.88;142.13;;;;;;;-6.71;73.09;98343.47;5102898;28;20051;-63
2021/12/26 10:47:17;;;;;;;397.33;101.18;;;;;;;-6.59;72.94;98347.31;5103656;28;20028;-65
2021/12/26 10:49:48;;;;;;;254.00;75.18;;;;;;;-6.48;73.13;98347.84;5102216;28;20058;-64
2021/12/26 10:52:26;;;;;;;241.77;80.72;;;;;;;-6.39;73.05;98348.53;5102779;28;20024;-66
2021/12/26 10:54:57;;;;;;;270.35;83.53;;;;;;;-6.34;72.71;98348.81;5104873;27;20448;-65
2021/12/26 10:57:27;;;;;;;204.30;63.33;;;;;;;-6.27;72.68;98341.69;5107339;27;20024;-66
2021/12/26 11:00:05;;;;;;;183.73;59.83;;;;;;;-6.24;72.85;98348.50;5105372;27;20049;-64
2021/12/26 11:02:34;;;;;;;176.07;58.60;;;;;;;-6.20;72.82;98339.09;5104034;27;20034;-64
2021/12/26 11:05:04;;;;;;;154.32;49.47;;;;;;;-6.15;72.72;98347.34;5104637;27;20553;-64
2021/12/26 11:07:38;;;;;;;160.60;51.83;;;;;;;-6.11;72.74;98340.63;5109256;27;20108;-64